sensor_id;sensor_type;location;lat;lon;timestamp;P1;P2;P0
38288;PMS5003;24092;53.370;-6.588;2022-10-16T00:00:42;1;0;
38288;PMS5003;24092;53.370;-6.588;2022-10-16T00:03:10;2;1;
38288;PMS5003;24092;53.370;-6.588;2022-10-16T00:05:38;1;1;
38288;PMS5003;24092;53.370;-6.588;2022-10-16T00:08:08;1;1;
38288;PMS5003;24092;53.370;-6.588;2022-10-16T00:10:37;0;0;
38288;PMS5003;24092;53.370;-6.588;2022-10-16T00:13:05;1;0;
38288;PMS5003;24092;53.370;-6.588;2022-10-16T00:15:34;0;0;
38288;PMS5003;24092;53.370;-6.588;2022-10-16T00:18:02;0;0;
38288;PMS5003;24092;53.370;-6.588;2022-10-16T00:20:30;0;0;
38288;PMS5003;24092;53.370;-6.588;2022-10-16T00:23:00;0;0;
38288;PMS5003;24092;53.370;-6.588;2022-10-16T00:25:27;1;0;
38288;PMS5003;24092;53.370;-6.588;2022-10-16T00:27:54;1;1;
38288;PMS5003;24092;53.370;-6.588;2022-10-16T00:30:21;1;1;
38288;PMS5003;24092;53.370;-6.588;2022-10-16T00:32:48;1;1;
38288;PMS5003;24092;53.370;-6.588;2022-10-16T00:35:15;2;1;
38288;PMS5003;24092;53.370;-6.588;2022-10-16T00:37:42;2;2;
38288;PMS5003;24092;53.370;-6.588;2022-10-16T00:40:10;2;1;
38288;PMS5003;24092;53.370;-6.588;2022-10-16T00:42:37;1;1;
38288;PMS5003;24092;53.370;-6.588;2022-10-16T00:45:05;2;2;
38288;PMS5003;24092;53.370;-6.588;2022-10-16T00:47:35;2;2;
38288;PMS5003;24092;53.370;-6.588;2022-10-16T00:50:06;4;4;
38288;PMS5003;24092;53.370;-6.588;2022-10-16T00:52:36;5;5;
38288;PMS5003;24092;53.370;-6.588;2022-10-16T00:55:05;8;8;
38288;PMS5003;24092;53.370;-6.588;2022-10-16T00:57:35;10;10;
38288;PMS5003;24092;53.370;-6.588;2022-10-16T01:00:03;12;11;
38288;PMS5003;24092;53.370;-6.588;2022-10-16T01:02:33;16;14;
38288;PMS5003;24092;53.370;-6.588;2022-10-16T01:05:00;16;14;
38288;PMS5003;24092;53.370;-6.588;2022-10-16T01:07:31;17;16;
38288;PMS5003;24092;53.370;-6.588;2022-10-16T01:10:12;13;13;
38288;PMS5003;24092;53.370;-6.588;2022-10-16T01:12:51;13;13;
38288;PMS5003;24092;53.370;-6.588;2022-10-16T01:15:25;10;10;
38288;PMS5003;24092;53.370;-6.588;2022-10-16T01:17:57;11;10;
38288;PMS5003;24092;53.370;-6.588;2022-10-16T01:20:28;6;6;
38288;PMS5003;24092;53.370;-6.588;2022-10-16T01:23:03;10;10;
38288;PMS5003;24092;53.370;-6.588;2022-10-16T01:25:39;9;9;
38288;PMS5003;24092;53.370;-6.588;2022-10-16T01:28:21;8;8;
38288;PMS5003;24092;53.370;-6.588;2022-10-16T01:30:52;12;12;
38288;PMS5003;24092;53.370;-6.588;2022-10-16T01:33:24;5;5;
38288;PMS5003;24092;53.370;-6.588;2022-10-16T01:35:58;11;11;
38288;PMS5003;24092;53.370;-6.588;2022-10-16T01:38:33;9;9;
38288;PMS5003;24092;53.370;-6.588;2022-10-16T01:41:04;4;4;
38288;PMS5003;24092;53.370;-6.588;2022-10-16T01:43:35;4;4;
38288;PMS5003;24092;53.370;-6.588;2022-10-16T01:46:07;4;4;
38288;PMS5003;24092;53.370;-6.588;2022-10-16T01:48:36;4;3;
38288;PMS5003;24092;53.370;-6.588;2022-10-16T01:51:05;4;3;
38288;PMS5003;24092;53.370;-6.588;2022-10-16T01:53:35;3;3;
38288;PMS5003;24092;53.370;-6.588;2022-10-16T01:56:04;4;3;
38288;PMS5003;24092;53.370;-6.588;2022-10-16T01:58:36;3;3;
38288;PMS5003;24092;53.370;-6.588;2022-10-16T02:01:08;5;5;
38288;PMS5003;24092;53.370;-6.588;2022-10-16T02:03:38;4;4;
38288;PMS5003;24092;53.370;-6.588;2022-10-16T02:06:08;4;4;
38288;PMS5003;24092;53.370;-6.588;2022-10-16T02:08:35;5;5;
38288;PMS5003;24092;53.370;-6.588;2022-10-16T02:11:04;6;5;
38288;PMS5003;24092;53.370;-6.588;2022-10-16T02:13:32;5;5;
38288;PMS5003;24092;53.370;-6.588;2022-10-16T02:16:04;6;6;
38288;PMS5003;24092;53.370;-6.588;2022-10-16T02:18:33;5;5;
38288;PMS5003;24092;53.370;-6.588;2022-10-16T02:21:01;3;3;
38288;PMS5003;24092;53.370;-6.588;2022-10-16T02:23:35;6;6;
38288;PMS5003;24092;53.370;-6.588;2022-10-16T02:26:08;12;12;
38288;PMS5003;24092;53.370;-6.588;2022-10-16T02:28:42;13;13;
38288;PMS5003;24092;53.370;-6.588;2022-10-16T02:31:16;12;12;
38288;PMS5003;24092;53.370;-6.588;2022-10-16T02:33:49;11;11;
38288;PMS5003;24092;53.370;-6.588;2022-10-16T02:36:19;10;10;
38288;PMS5003;24092;53.370;-6.588;2022-10-16T02:38:46;12;12;
38288;PMS5003;24092;53.370;-6.588;2022-10-16T02:41:14;11;11;
38288;PMS5003;24092;53.370;-6.588;2022-10-16T02:43:42;13;13;
38288;PMS5003;24092;53.370;-6.588;2022-10-16T02:46:09;16;16;
38288;PMS5003;24092;53.370;-6.588;2022-10-16T02:48:36;3;3;
38288;PMS5003;24092;53.370;-6.588;2022-10-16T02:51:03;5;5;
38288;PMS5003;24092;53.370;-6.588;2022-10-16T02:53:31;1;1;
38288;PMS5003;24092;53.370;-6.588;2022-10-16T02:55:58;0;0;
38288;PMS5003;24092;53.370;-6.588;2022-10-16T02:58:25;2;1;
38288;PMS5003;24092;53.370;-6.588;2022-10-16T03:00:53;0;0;
38288;PMS5003;24092;53.370;-6.588;2022-10-16T03:03:21;0;0;
38288;PMS5003;24092;53.370;-6.588;2022-10-16T03:05:48;2;2;
38288;PMS5003;24092;53.370;-6.588;2022-10-16T03:08:15;0;0;
38288;PMS5003;24092;53.370;-6.588;2022-10-16T03:10:42;1;1;
38288;PMS5003;24092;53.370;-6.588;2022-10-16T03:13:09;0;0;
38288;PMS5003;24092;53.370;-6.588;2022-10-16T03:15:36;1;1;
38288;PMS5003;24092;53.370;-6.588;2022-10-16T03:18:03;0;0;
38288;PMS5003;24092;53.370;-6.588;2022-10-16T03:20:30;1;0;
38288;PMS5003;24092;53.370;-6.588;2022-10-16T03:22:57;0;0;
38288;PMS5003;24092;53.370;-6.588;2022-10-16T03:25:25;0;0;
38288;PMS5003;24092;53.370;-6.588;2022-10-16T03:27:52;0;0;
38288;PMS5003;24092;53.370;-6.588;2022-10-16T03:30:19;0;0;
38288;PMS5003;24092;53.370;-6.588;2022-10-16T03:32:46;0;0;
38288;PMS5003;24092;53.370;-6.588;2022-10-16T03:35:13;0;0;
38288;PMS5003;24092;53.370;-6.588;2022-10-16T03:37:40;1;1;
38288;PMS5003;24092;53.370;-6.588;2022-10-16T03:40:08;0;0;
38288;PMS5003;24092;53.370;-6.588;2022-10-16T03:42:35;0;0;
38288;PMS5003;24092;53.370;-6.588;2022-10-16T03:45:03;0;0;
38288;PMS5003;24092;53.370;-6.588;2022-10-16T03:47:31;0;0;
38288;PMS5003;24092;53.370;-6.588;2022-10-16T03:49:59;0;0;
38288;PMS5003;24092;53.370;-6.588;2022-10-16T03:52:26;0;0;
38288;PMS5003;24092;53.370;-6.588;2022-10-16T03:54:53;0;0;
38288;PMS5003;24092;53.370;-6.588;2022-10-16T03:57:20;2;1;
38288;PMS5003;24092;53.370;-6.588;2022-10-16T03:59:47;1;0;
38288;PMS5003;24092;53.370;-6.588;2022-10-16T04:02:14;0;0;
38288;PMS5003;24092;53.370;-6.588;2022-10-16T04:04:41;0;0;
38288;PMS5003;24092;53.370;-6.588;2022-10-16T04:07:08;0;0;
38288;PMS5003;24092;53.370;-6.588;2022-10-16T04:09:35;0;0;
38288;PMS5003;24092;53.370;-6.588;2022-10-16T04:12:03;0;0;
38288;PMS5003;24092;53.370;-6.588;2022-10-16T04:14:30;0;0;
38288;PMS5003;24092;53.370;-6.588;2022-10-16T04:16:57;0;0;
38288;PMS5003;24092;53.370;-6.588;2022-10-16T04:19:24;0;0;
38288;PMS5003;24092;53.370;-6.588;2022-10-16T04:21:51;0;0;
38288;PMS5003;24092;53.370;-6.588;2022-10-16T04:24:18;1;0;
38288;PMS5003;24092;53.370;-6.588;2022-10-16T04:26:45;0;0;
38288;PMS5003;24092;53.370;-6.588;2022-10-16T04:29:12;0;0;
38288;PMS5003;24092;53.370;-6.588;2022-10-16T04:31:40;0;0;
38288;PMS5003;24092;53.370;-6.588;2022-10-16T04:34:07;4;0;
38288;PMS5003;24092;53.370;-6.588;2022-10-16T04:36:34;0;0;
38288;PMS5003;24092;53.370;-6.588;2022-10-16T04:39:01;0;0;
38288;PMS5003;24092;53.370;-6.588;2022-10-16T04:41:28;0;0;
38288;PMS5003;24092;53.370;-6.588;2022-10-16T04:43:55;0;0;
38288;PMS5003;24092;53.370;-6.588;2022-10-16T04:46:22;0;0;
38288;PMS5003;24092;53.370;-6.588;2022-10-16T04:48:49;1;0;
38288;PMS5003;24092;53.370;-6.588;2022-10-16T04:51:16;0;0;
38288;PMS5003;24092;53.370;-6.588;2022-10-16T04:53:44;1;0;
38288;PMS5003;24092;53.370;-6.588;2022-10-16T04:56:11;0;0;
38288;PMS5003;24092;53.370;-6.588;2022-10-16T04:58:38;0;0;
38288;PMS5003;24092;53.370;-6.588;2022-10-16T05:01:05;0;0;
38288;PMS5003;24092;53.370;-6.588;2022-10-16T05:03:32;0;0;
38288;PMS5003;24092;53.370;-6.588;2022-10-16T05:06:00;1;1;
38288;PMS5003;24092;53.370;-6.588;2022-10-16T05:08:27;0;0;
38288;PMS5003;24092;53.370;-6.588;2022-10-16T05:10:54;0;0;
38288;PMS5003;24092;53.370;-6.588;2022-10-16T05:13:21;0;0;
38288;PMS5003;24092;53.370;-6.588;2022-10-16T05:15:49;0;0;
38288;PMS5003;24092;53.370;-6.588;2022-10-16T05:18:21;1;0;
38288;PMS5003;24092;53.370;-6.588;2022-10-16T05:20:48;0;0;
38288;PMS5003;24092;53.370;-6.588;2022-10-16T05:23:15;1;0;
38288;PMS5003;24092;53.370;-6.588;2022-10-16T05:25:42;0;0;
38288;PMS5003;24092;53.370;-6.588;2022-10-16T05:28:09;1;0;
38288;PMS5003;24092;53.370;-6.588;2022-10-16T05:30:37;0;0;
38288;PMS5003;24092;53.370;-6.588;2022-10-16T05:33:04;1;1;
38288;PMS5003;24092;53.370;-6.588;2022-10-16T05:35:30;1;0;
38288;PMS5003;24092;53.370;-6.588;2022-10-16T05:37:58;0;0;
38288;PMS5003;24092;53.370;-6.588;2022-10-16T05:40:25;3;1;
38288;PMS5003;24092;53.370;-6.588;2022-10-16T05:42:54;0;0;
38288;PMS5003;24092;53.370;-6.588;2022-10-16T05:45:22;1;0;
38288;PMS5003;24092;53.370;-6.588;2022-10-16T05:47:49;0;0;
38288;PMS5003;24092;53.370;-6.588;2022-10-16T05:50:16;0;0;
38288;PMS5003;24092;53.370;-6.588;2022-10-16T05:52:43;0;0;
38288;PMS5003;24092;53.370;-6.588;2022-10-16T05:55:10;1;0;
38288;PMS5003;24092;53.370;-6.588;2022-10-16T05:57:37;2;1;
38288;PMS5003;24092;53.370;-6.588;2022-10-16T06:00:05;0;0;
38288;PMS5003;24092;53.370;-6.588;2022-10-16T06:02:32;0;0;
38288;PMS5003;24092;53.370;-6.588;2022-10-16T06:04:59;0;0;
38288;PMS5003;24092;53.370;-6.588;2022-10-16T06:07:26;0;0;
38288;PMS5003;24092;53.370;-6.588;2022-10-16T06:09:54;0;0;
38288;PMS5003;24092;53.370;-6.588;2022-10-16T06:12:21;0;0;
38288;PMS5003;24092;53.370;-6.588;2022-10-16T06:14:48;2;1;
38288;PMS5003;24092;53.370;-6.588;2022-10-16T06:17:15;0;0;
38288;PMS5003;24092;53.370;-6.588;2022-10-16T06:19:42;0;0;
38288;PMS5003;24092;53.370;-6.588;2022-10-16T06:22:09;0;0;
38288;PMS5003;24092;53.370;-6.588;2022-10-16T06:24:36;0;0;
38288;PMS5003;24092;53.370;-6.588;2022-10-16T06:27:04;2;1;
38288;PMS5003;24092;53.370;-6.588;2022-10-16T06:29:31;0;0;
38288;PMS5003;24092;53.370;-6.588;2022-10-16T06:31:58;0;0;
38288;PMS5003;24092;53.370;-6.588;2022-10-16T06:34:26;0;0;
38288;PMS5003;24092;53.370;-6.588;2022-10-16T06:36:53;0;0;
38288;PMS5003;24092;53.370;-6.588;2022-10-16T06:39:20;0;0;
38288;PMS5003;24092;53.370;-6.588;2022-10-16T06:41:47;0;0;
38288;PMS5003;24092;53.370;-6.588;2022-10-16T06:44:14;1;0;
38288;PMS5003;24092;53.370;-6.588;2022-10-16T06:46:42;1;0;
38288;PMS5003;24092;53.370;-6.588;2022-10-16T06:49:09;0;0;
38288;PMS5003;24092;53.370;-6.588;2022-10-16T06:51:36;1;1;
38288;PMS5003;24092;53.370;-6.588;2022-10-16T06:54:03;1;0;
38288;PMS5003;24092;53.370;-6.588;2022-10-16T06:56:31;0;0;
38288;PMS5003;24092;53.370;-6.588;2022-10-16T06:59:00;1;0;
38288;PMS5003;24092;53.370;-6.588;2022-10-16T07:01:27;0;0;
38288;PMS5003;24092;53.370;-6.588;2022-10-16T07:03:55;0;0;
38288;PMS5003;24092;53.370;-6.588;2022-10-16T07:06:23;0;0;
38288;PMS5003;24092;53.370;-6.588;2022-10-16T07:08:51;0;0;
38288;PMS5003;24092;53.370;-6.588;2022-10-16T07:11:20;0;0;
38288;PMS5003;24092;53.370;-6.588;2022-10-16T07:13:49;0;0;
38288;PMS5003;24092;53.370;-6.588;2022-10-16T07:16:18;0;0;
38288;PMS5003;24092;53.370;-6.588;2022-10-16T07:18:46;0;0;
38288;PMS5003;24092;53.370;-6.588;2022-10-16T07:21:15;0;0;
38288;PMS5003;24092;53.370;-6.588;2022-10-16T07:23:43;1;0;
38288;PMS5003;24092;53.370;-6.588;2022-10-16T07:26:10;1;1;
38288;PMS5003;24092;53.370;-6.588;2022-10-16T07:28:38;0;0;
38288;PMS5003;24092;53.370;-6.588;2022-10-16T07:31:06;0;0;
38288;PMS5003;24092;53.370;-6.588;2022-10-16T07:33:34;0;0;
38288;PMS5003;24092;53.370;-6.588;2022-10-16T07:36:02;0;0;
38288;PMS5003;24092;53.370;-6.588;2022-10-16T07:38:30;0;0;
38288;PMS5003;24092;53.370;-6.588;2022-10-16T07:40:57;0;0;
38288;PMS5003;24092;53.370;-6.588;2022-10-16T07:43:25;0;0;
38288;PMS5003;24092;53.370;-6.588;2022-10-16T07:45:53;1;0;
38288;PMS5003;24092;53.370;-6.588;2022-10-16T07:48:21;0;0;
38288;PMS5003;24092;53.370;-6.588;2022-10-16T07:50:50;1;0;
38288;PMS5003;24092;53.370;-6.588;2022-10-16T07:53:17;1;1;
38288;PMS5003;24092;53.370;-6.588;2022-10-16T07:55:44;1;0;
38288;PMS5003;24092;53.370;-6.588;2022-10-16T07:58:11;0;0;
38288;PMS5003;24092;53.370;-6.588;2022-10-16T08:00:39;0;0;
38288;PMS5003;24092;53.370;-6.588;2022-10-16T08:03:06;0;0;
38288;PMS5003;24092;53.370;-6.588;2022-10-16T08:05:34;0;0;
38288;PMS5003;24092;53.370;-6.588;2022-10-16T08:08:01;0;0;
38288;PMS5003;24092;53.370;-6.588;2022-10-16T08:10:28;0;0;
38288;PMS5003;24092;53.370;-6.588;2022-10-16T08:12:56;0;0;
38288;PMS5003;24092;53.370;-6.588;2022-10-16T08:15:24;0;0;
38288;PMS5003;24092;53.370;-6.588;2022-10-16T08:17:55;0;0;
38288;PMS5003;24092;53.370;-6.588;2022-10-16T08:20:24;1;1;
38288;PMS5003;24092;53.370;-6.588;2022-10-16T08:22:51;10;10;
38288;PMS5003;24092;53.370;-6.588;2022-10-16T08:25:19;9;9;
38288;PMS5003;24092;53.370;-6.588;2022-10-16T08:27:47;0;0;
38288;PMS5003;24092;53.370;-6.588;2022-10-16T08:30:14;0;0;
38288;PMS5003;24092;53.370;-6.588;2022-10-16T08:32:42;1;0;
38288;PMS5003;24092;53.370;-6.588;2022-10-16T08:35:10;1;0;
38288;PMS5003;24092;53.370;-6.588;2022-10-16T08:37:38;0;0;
38288;PMS5003;24092;53.370;-6.588;2022-10-16T08:40:07;0;0;
38288;PMS5003;24092;53.370;-6.588;2022-10-16T08:42:47;0;0;
38288;PMS5003;24092;53.370;-6.588;2022-10-16T08:45:30;0;0;
38288;PMS5003;24092;53.370;-6.588;2022-10-16T08:48:08;0;0;
38288;PMS5003;24092;53.370;-6.588;2022-10-16T08:50:42;0;0;
38288;PMS5003;24092;53.370;-6.588;2022-10-16T08:53:12;1;0;
38288;PMS5003;24092;53.370;-6.588;2022-10-16T08:55:43;0;0;
38288;PMS5003;24092;53.370;-6.588;2022-10-16T08:58:15;0;0;
38288;PMS5003;24092;53.370;-6.588;2022-10-16T09:00:44;0;0;
38288;PMS5003;24092;53.370;-6.588;2022-10-16T09:03:17;2;1;
38288;PMS5003;24092;53.370;-6.588;2022-10-16T09:06:03;0;0;
38288;PMS5003;24092;53.370;-6.588;2022-10-16T09:08:43;0;0;
38288;PMS5003;24092;53.370;-6.588;2022-10-16T09:11:21;1;0;
38288;PMS5003;24092;53.370;-6.588;2022-10-16T09:13:59;0;0;
38288;PMS5003;24092;53.370;-6.588;2022-10-16T09:16:30;0;0;
38288;PMS5003;24092;53.370;-6.588;2022-10-16T09:19:03;0;0;
38288;PMS5003;24092;53.370;-6.588;2022-10-16T09:21:37;1;1;
38288;PMS5003;24092;53.370;-6.588;2022-10-16T09:24:10;0;0;
38288;PMS5003;24092;53.370;-6.588;2022-10-16T09:26:40;0;0;
38288;PMS5003;24092;53.370;-6.588;2022-10-16T09:29:08;1;0;
38288;PMS5003;24092;53.370;-6.588;2022-10-16T09:31:37;0;0;
38288;PMS5003;24092;53.370;-6.588;2022-10-16T09:34:05;0;0;
38288;PMS5003;24092;53.370;-6.588;2022-10-16T09:36:42;1;0;
38288;PMS5003;24092;53.370;-6.588;2022-10-16T09:39:11;0;0;
38288;PMS5003;24092;53.370;-6.588;2022-10-16T09:41:38;0;0;
38288;PMS5003;24092;53.370;-6.588;2022-10-16T09:44:15;0;0;
38288;PMS5003;24092;53.370;-6.588;2022-10-16T09:46:47;1;1;
38288;PMS5003;24092;53.370;-6.588;2022-10-16T09:49:19;1;1;
38288;PMS5003;24092;53.370;-6.588;2022-10-16T09:51:48;1;0;
38288;PMS5003;24092;53.370;-6.588;2022-10-16T09:54:17;1;0;
38288;PMS5003;24092;53.370;-6.588;2022-10-16T09:56:45;1;1;
38288;PMS5003;24092;53.370;-6.588;2022-10-16T09:59:13;0;0;
38288;PMS5003;24092;53.370;-6.588;2022-10-16T10:01:44;1;1;
38288;PMS5003;24092;53.370;-6.588;2022-10-16T10:04:14;0;0;
38288;PMS5003;24092;53.370;-6.588;2022-10-16T10:06:43;1;0;
38288;PMS5003;24092;53.370;-6.588;2022-10-16T10:09:16;0;0;
38288;PMS5003;24092;53.370;-6.588;2022-10-16T10:11:48;1;0;
38288;PMS5003;24092;53.370;-6.588;2022-10-16T10:14:20;0;0;
38288;PMS5003;24092;53.370;-6.588;2022-10-16T10:16:50;1;0;
38288;PMS5003;24092;53.370;-6.588;2022-10-16T10:19:20;0;0;
38288;PMS5003;24092;53.370;-6.588;2022-10-16T10:21:49;0;0;
38288;PMS5003;24092;53.370;-6.588;2022-10-16T10:24:17;0;0;
38288;PMS5003;24092;53.370;-6.588;2022-10-16T10:26:49;1;0;
38288;PMS5003;24092;53.370;-6.588;2022-10-16T10:29:25;0;0;
38288;PMS5003;24092;53.370;-6.588;2022-10-16T10:32:04;0;0;
38288;PMS5003;24092;53.370;-6.588;2022-10-16T10:34:43;0;0;
38288;PMS5003;24092;53.370;-6.588;2022-10-16T10:37:29;0;0;
38288;PMS5003;24092;53.370;-6.588;2022-10-16T10:40:05;0;0;
38288;PMS5003;24092;53.370;-6.588;2022-10-16T10:42:43;1;0;
38288;PMS5003;24092;53.370;-6.588;2022-10-16T10:45:21;0;0;
38288;PMS5003;24092;53.370;-6.588;2022-10-16T10:47:56;1;1;
38288;PMS5003;24092;53.370;-6.588;2022-10-16T10:50:32;0;0;
38288;PMS5003;24092;53.370;-6.588;2022-10-16T10:53:07;6;5;
38288;PMS5003;24092;53.370;-6.588;2022-10-16T10:55:45;0;0;
38288;PMS5003;24092;53.370;-6.588;2022-10-16T10:58:24;0;0;
38288;PMS5003;24092;53.370;-6.588;2022-10-16T11:01:07;1;0;
38288;PMS5003;24092;53.370;-6.588;2022-10-16T11:03:42;0;0;
38288;PMS5003;24092;53.370;-6.588;2022-10-16T11:06:26;2;1;
38288;PMS5003;24092;53.370;-6.588;2022-10-16T11:08:59;0;0;
38288;PMS5003;24092;53.370;-6.588;2022-10-16T11:11:34;1;1;
38288;PMS5003;24092;53.370;-6.588;2022-10-16T11:14:10;2;1;
38288;PMS5003;24092;53.370;-6.588;2022-10-16T11:16:44;0;0;
38288;PMS5003;24092;53.370;-6.588;2022-10-16T11:19:20;2;1;
38288;PMS5003;24092;53.370;-6.588;2022-10-16T11:21:59;0;0;
38288;PMS5003;24092;53.370;-6.588;2022-10-16T11:24:33;2;1;
38288;PMS5003;24092;53.370;-6.588;2022-10-16T11:27:08;0;0;
38288;PMS5003;24092;53.370;-6.588;2022-10-16T11:29:44;13;10;
38288;PMS5003;24092;53.370;-6.588;2022-10-16T11:32:27;9;7;
38288;PMS5003;24092;53.370;-6.588;2022-10-16T11:35:02;3;2;
38288;PMS5003;24092;53.370;-6.588;2022-10-16T11:37:38;1;1;
38288;PMS5003;24092;53.370;-6.588;2022-10-16T11:40:16;2;2;
38288;PMS5003;24092;53.370;-6.588;2022-10-16T11:42:50;2;1;
38288;PMS5003;24092;53.370;-6.588;2022-10-16T11:45:27;1;1;
38288;PMS5003;24092;53.370;-6.588;2022-10-16T11:48:07;3;1;
38288;PMS5003;24092;53.370;-6.588;2022-10-16T11:50:48;3;2;
38288;PMS5003;24092;53.370;-6.588;2022-10-16T11:53:21;1;1;
38288;PMS5003;24092;53.370;-6.588;2022-10-16T11:55:57;1;1;
38288;PMS5003;24092;53.370;-6.588;2022-10-16T11:58:25;3;2;
38288;PMS5003;24092;53.370;-6.588;2022-10-16T12:00:57;89;73;
38288;PMS5003;24092;53.370;-6.588;2022-10-16T12:03:33;97;78;
38288;PMS5003;24092;53.370;-6.588;2022-10-16T12:06:11;24;22;
38288;PMS5003;24092;53.370;-6.588;2022-10-16T12:08:49;4;3;
38288;PMS5003;24092;53.370;-6.588;2022-10-16T12:11:22;2;2;
38288;PMS5003;24092;53.370;-6.588;2022-10-16T12:14:07;7;5;
38288;PMS5003;24092;53.370;-6.588;2022-10-16T12:16:55;3;3;
38288;PMS5003;24092;53.370;-6.588;2022-10-16T12:19:24;7;5;
38288;PMS5003;24092;53.370;-6.588;2022-10-16T12:21:54;8;5;
38288;PMS5003;24092;53.370;-6.588;2022-10-16T12:24:39;5;5;
38288;PMS5003;24092;53.370;-6.588;2022-10-16T12:27:20;5;5;
38288;PMS5003;24092;53.370;-6.588;2022-10-16T12:29:55;3;3;
38288;PMS5003;24092;53.370;-6.588;2022-10-16T12:32:27;6;5;
38288;PMS5003;24092;53.370;-6.588;2022-10-16T12:34:58;3;3;
38288;PMS5003;24092;53.370;-6.588;2022-10-16T12:37:27;3;3;
38288;PMS5003;24092;53.370;-6.588;2022-10-16T12:39:59;1;1;
38288;PMS5003;24092;53.370;-6.588;2022-10-16T12:42:37;1;0;
38288;PMS5003;24092;53.370;-6.588;2022-10-16T12:45:21;1;0;
38288;PMS5003;24092;53.370;-6.588;2022-10-16T12:47:52;1;0;
38288;PMS5003;24092;53.370;-6.588;2022-10-16T12:50:25;2;1;
38288;PMS5003;24092;53.370;-6.588;2022-10-16T12:52:55;1;0;
38288;PMS5003;24092;53.370;-6.588;2022-10-16T12:55:22;2;1;
38288;PMS5003;24092;53.370;-6.588;2022-10-16T12:57:59;1;0;
38288;PMS5003;24092;53.370;-6.588;2022-10-16T13:00:36;10;8;
38288;PMS5003;24092;53.370;-6.588;2022-10-16T13:04:18;82;70;
38288;PMS5003;24092;53.370;-6.588;2022-10-16T13:06:57;26;23;
38288;PMS5003;24092;53.370;-6.588;2022-10-16T13:09:36;38;32;
38288;PMS5003;24092;53.370;-6.588;2022-10-16T13:12:17;48;43;
38288;PMS5003;24092;53.370;-6.588;2022-10-16T13:15:00;1;1;
38288;PMS5003;24092;53.370;-6.588;2022-10-16T13:17:40;60;55;
38288;PMS5003;24092;53.370;-6.588;2022-10-16T13:20:17;29;26;
38288;PMS5003;24092;53.370;-6.588;2022-10-16T13:22:55;6;6;
38288;PMS5003;24092;53.370;-6.588;2022-10-16T13:25:32;17;15;
38288;PMS5003;24092;53.370;-6.588;2022-10-16T13:28:09;24;24;
38288;PMS5003;24092;53.370;-6.588;2022-10-16T13:30:39;25;22;
38288;PMS5003;24092;53.370;-6.588;2022-10-16T13:33:13;11;9;
38288;PMS5003;24092;53.370;-6.588;2022-10-16T13:35:47;17;16;
38288;PMS5003;24092;53.370;-6.588;2022-10-16T13:38:18;18;17;
38288;PMS5003;24092;53.370;-6.588;2022-10-16T13:40:50;13;12;
38288;PMS5003;24092;53.370;-6.588;2022-10-16T13:43:19;18;17;
38288;PMS5003;24092;53.370;-6.588;2022-10-16T13:45:57;28;25;
38288;PMS5003;24092;53.370;-6.588;2022-10-16T13:48:27;31;30;
38288;PMS5003;24092;53.370;-6.588;2022-10-16T13:50:59;32;29;
38288;PMS5003;24092;53.370;-6.588;2022-10-16T13:53:30;92;74;
38288;PMS5003;24092;53.370;-6.588;2022-10-16T13:55:58;46;39;
38288;PMS5003;24092;53.370;-6.588;2022-10-16T13:58:25;10;7;
38288;PMS5003;24092;53.370;-6.588;2022-10-16T14:00:54;26;24;
38288;PMS5003;24092;53.370;-6.588;2022-10-16T14:03:23;19;14;
38288;PMS5003;24092;53.370;-6.588;2022-10-16T14:05:52;33;30;
38288;PMS5003;24092;53.370;-6.588;2022-10-16T14:08:21;48;38;
38288;PMS5003;24092;53.370;-6.588;2022-10-16T14:10:51;90;69;
38288;PMS5003;24092;53.370;-6.588;2022-10-16T14:13:23;63;50;
38288;PMS5003;24092;53.370;-6.588;2022-10-16T14:15:56;57;45;
38288;PMS5003;24092;53.370;-6.588;2022-10-16T14:18:26;64;52;
38288;PMS5003;24092;53.370;-6.588;2022-10-16T14:21:01;44;41;
38288;PMS5003;24092;53.370;-6.588;2022-10-16T14:23:31;38;34;
38288;PMS5003;24092;53.370;-6.588;2022-10-16T14:26:17;18;18;
38288;PMS5003;24092;53.370;-6.588;2022-10-16T14:28:48;9;9;
38288;PMS5003;24092;53.370;-6.588;2022-10-16T14:31:28;12;12;
38288;PMS5003;24092;53.370;-6.588;2022-10-16T14:33:56;8;7;
38288;PMS5003;24092;53.370;-6.588;2022-10-16T14:36:25;17;17;
38288;PMS5003;24092;53.370;-6.588;2022-10-16T14:38:57;12;10;
38288;PMS5003;24092;53.370;-6.588;2022-10-16T14:41:28;12;10;
38288;PMS5003;24092;53.370;-6.588;2022-10-16T14:43:56;7;7;
38288;PMS5003;24092;53.370;-6.588;2022-10-16T14:46:29;13;12;
38288;PMS5003;24092;53.370;-6.588;2022-10-16T14:49:00;17;15;
38288;PMS5003;24092;53.370;-6.588;2022-10-16T14:51:32;21;18;
38288;PMS5003;24092;53.370;-6.588;2022-10-16T14:53:59;21;17;
38288;PMS5003;24092;53.370;-6.588;2022-10-16T14:56:27;14;14;
38288;PMS5003;24092;53.370;-6.588;2022-10-16T14:58:57;89;79;
38288;PMS5003;24092;53.370;-6.588;2022-10-16T15:01:24;71;60;
38288;PMS5003;24092;53.370;-6.588;2022-10-16T15:03:51;35;33;
38288;PMS5003;24092;53.370;-6.588;2022-10-16T15:06:19;72;66;
38288;PMS5003;24092;53.370;-6.588;2022-10-16T15:08:46;57;50;
38288;PMS5003;24092;53.370;-6.588;2022-10-16T15:11:14;38;33;
38288;PMS5003;24092;53.370;-6.588;2022-10-16T15:13:44;44;40;
38288;PMS5003;24092;53.370;-6.588;2022-10-16T15:16:12;29;27;
38288;PMS5003;24092;53.370;-6.588;2022-10-16T15:18:41;33;28;
38288;PMS5003;24092;53.370;-6.588;2022-10-16T15:21:09;22;20;
38288;PMS5003;24092;53.370;-6.588;2022-10-16T15:21:12;22;20;
38288;PMS5003;24092;53.370;-6.588;2022-10-16T15:23:48;20;17;
38288;PMS5003;24092;53.370;-6.588;2022-10-16T15:26:16;16;16;
38288;PMS5003;24092;53.370;-6.588;2022-10-16T15:28:43;21;19;
38288;PMS5003;24092;53.370;-6.588;2022-10-16T15:31:11;13;13;
38288;PMS5003;24092;53.370;-6.588;2022-10-16T15:33:38;13;12;
38288;PMS5003;24092;53.370;-6.588;2022-10-16T15:36:05;15;13;
38288;PMS5003;24092;53.370;-6.588;2022-10-16T15:38:33;13;11;
38288;PMS5003;24092;53.370;-6.588;2022-10-16T15:41:01;16;14;
38288;PMS5003;24092;53.370;-6.588;2022-10-16T15:43:28;20;20;
38288;PMS5003;24092;53.370;-6.588;2022-10-16T15:45:59;22;21;
38288;PMS5003;24092;53.370;-6.588;2022-10-16T15:48:28;19;17;
38288;PMS5003;24092;53.370;-6.588;2022-10-16T15:50:56;19;17;
38288;PMS5003;24092;53.370;-6.588;2022-10-16T15:53:24;15;13;
38288;PMS5003;24092;53.370;-6.588;2022-10-16T15:55:51;19;18;
38288;PMS5003;24092;53.370;-6.588;2022-10-16T15:58:18;32;31;
38288;PMS5003;24092;53.370;-6.588;2022-10-16T16:00:53;69;66;
38288;PMS5003;24092;53.370;-6.588;2022-10-16T16:03:21;86;73;
38288;PMS5003;24092;53.370;-6.588;2022-10-16T16:05:49;51;42;
38288;PMS5003;24092;53.370;-6.588;2022-10-16T16:12:10;12;12;
38288;PMS5003;24092;53.370;-6.588;2022-10-16T16:14:37;12;10;
38288;PMS5003;24092;53.370;-6.588;2022-10-16T16:17:05;8;8;
38288;PMS5003;24092;53.370;-6.588;2022-10-16T16:19:32;8;7;
38288;PMS5003;24092;53.370;-6.588;2022-10-16T16:21:59;5;5;
38288;PMS5003;24092;53.370;-6.588;2022-10-16T16:24:27;10;9;
38288;PMS5003;24092;53.370;-6.588;2022-10-16T16:26:54;8;7;
38288;PMS5003;24092;53.370;-6.588;2022-10-16T16:29:21;10;7;
38288;PMS5003;24092;53.370;-6.588;2022-10-16T16:31:48;9;8;
38288;PMS5003;24092;53.370;-6.588;2022-10-16T16:34:14;10;10;
38288;PMS5003;24092;53.370;-6.588;2022-10-16T16:36:42;14;13;
38288;PMS5003;24092;53.370;-6.588;2022-10-16T16:39:09;8;7;
38288;PMS5003;24092;53.370;-6.588;2022-10-16T16:41:36;10;8;
38288;PMS5003;24092;53.370;-6.588;2022-10-16T16:44:04;13;12;
38288;PMS5003;24092;53.370;-6.588;2022-10-16T16:46:33;14;11;
38288;PMS5003;24092;53.370;-6.588;2022-10-16T16:49:01;22;20;